createdAt,value
2023-02-11T00:01:19.990Z,6.30
2023-02-11T00:03:46.785Z,6.40
2023-02-11T00:06:13.493Z,6.30
2023-02-11T00:16:07.130Z,6.20
2023-02-11T00:25:54.953Z,6.40
2023-02-11T00:28:21.589Z,6.40
2023-02-11T00:30:55.403Z,6.40
2023-02-11T00:33:22.035Z,6.40
2023-02-11T00:38:16.607Z,6.50
2023-02-11T00:43:10.608Z,6.50
2023-02-11T00:45:37.198Z,6.50
2023-02-11T00:48:03.847Z,6.50
2023-02-11T00:50:30.426Z,6.50
2023-02-11T00:55:24.117Z,6.50
2023-02-11T00:57:50.894Z,6.50
2023-02-11T01:00:17.692Z,6.50
2023-02-11T01:05:11.846Z,6.50
2023-02-11T01:15:04.842Z,6.50
2023-02-11T01:22:26.731Z,6.50
2023-02-11T01:27:20.519Z,6.50
2023-02-11T01:29:47.209Z,6.60
2023-02-11T01:32:13.923Z,6.50
2023-02-11T01:34:40.618Z,6.60
2023-02-11T01:37:07.235Z,6.50
2023-02-11T01:44:36.856Z,6.50
2023-02-11T01:47:06.243Z,6.40
2023-02-11T01:49:36.332Z,6.40
2023-02-11T01:54:53.754Z,6.40
2023-02-11T01:57:25.136Z,6.40
2023-02-11T02:00:26.277Z,6.30
2023-02-11T02:03:19.971Z,6.30
2023-02-11T02:05:55.484Z,6.30
2023-02-11T02:08:38.900Z,6.30
2023-02-11T02:11:05.608Z,6.20
2023-02-11T02:13:34.192Z,6.30
2023-02-11T02:16:03.446Z,6.30
2023-02-11T02:18:37.883Z,6.30
2023-02-11T02:21:16.377Z,6.30
2023-02-11T02:24:04.153Z,6.30
2023-02-11T02:26:44.868Z,6.20
2023-02-11T02:29:34.452Z,6.30
2023-02-11T02:32:40.917Z,6.30
2023-02-11T02:35:23.533Z,6.30
2023-02-11T02:38:13.616Z,6.20
2023-02-11T02:40:48.913Z,6.30
2023-02-11T02:43:17.073Z,6.30
2023-02-11T02:48:27.085Z,6.30
2023-02-11T02:51:09.756Z,6.30
2023-02-11T02:54:24.652Z,6.40
2023-02-11T02:57:10.221Z,6.30
2023-02-11T02:59:54.881Z,6.30
2023-02-11T03:02:38.787Z,6.30
2023-02-11T03:05:21.486Z,6.30
2023-02-11T03:08:09.755Z,6.20
2023-02-11T03:10:43.738Z,6.20
2023-02-11T03:13:11.440Z,6.10
2023-02-11T03:15:42.085Z,6.10
2023-02-11T03:18:11.804Z,6.20
2023-02-11T03:20:41.411Z,6.20
2023-02-11T03:23:28.891Z,6.10
2023-02-11T03:26:01.552Z,6.10
2023-02-11T03:28:44.177Z,6.10
2023-02-11T03:31:17.011Z,6.10
2023-02-11T03:34:08.565Z,6.10
2023-02-11T03:39:04.566Z,6.10
2023-02-11T03:41:33.200Z,6.10
2023-02-11T03:46:37.331Z,6.10
2023-02-11T03:49:09.590Z,6.10
2023-02-11T03:51:37.426Z,6.10
2023-02-11T03:54:10.038Z,6.10
2023-02-11T03:56:45.858Z,6.10
2023-02-11T04:06:33.544Z,6.10
2023-02-11T04:09:00.203Z,6.10
2023-02-11T04:11:26.842Z,6.10
2023-02-11T04:13:53.463Z,5.90
2023-02-11T04:16:20.399Z,6.10
2023-02-11T04:18:47.039Z,6.10
2023-02-11T04:21:13.643Z,6.10
2023-02-11T04:23:40.249Z,6.10
2023-02-11T04:26:07.103Z,6.10
2023-02-11T04:28:34.842Z,6.10
2023-02-11T04:31:01.700Z,6.00
2023-02-11T04:33:28.432Z,5.80
2023-02-11T04:35:55.006Z,6.00
2023-02-11T04:38:24.020Z,6.10
2023-02-11T04:40:51.306Z,6.10
2023-02-11T04:43:17.988Z,6.20
2023-02-11T04:48:11.680Z,6.10
2023-02-11T04:50:38.260Z,6.20
2023-02-11T04:53:04.881Z,6.10
2023-02-11T04:57:58.542Z,6.20
2023-02-11T05:02:52.193Z,6.20
2023-02-11T05:05:18.814Z,6.10
2023-02-11T05:10:12.472Z,6.10
2023-02-11T05:15:06.453Z,6.20
2023-02-11T05:17:33.172Z,6.20
2023-02-11T05:22:26.879Z,6.20
2023-02-11T05:32:14.570Z,6.30
2023-02-11T05:34:41.177Z,6.30
2023-02-11T05:37:07.982Z,6.30
2023-02-11T05:42:01.742Z,6.30
2023-02-11T05:49:22.445Z,6.30
2023-02-11T05:56:44.937Z,6.30
2023-02-11T05:59:14.430Z,6.30
2023-02-11T06:01:41.131Z,6.30
2023-02-11T06:06:34.886Z,6.30
2023-02-11T06:13:55.852Z,6.40
2023-02-11T06:18:49.728Z,6.40
2023-02-11T06:21:16.289Z,6.40
2023-02-11T06:26:17.153Z,6.40
2023-02-11T06:33:39.238Z,6.30
2023-02-11T06:36:15.613Z,6.30
2023-02-11T06:38:42.585Z,6.40
2023-02-11T06:41:11.183Z,6.50
2023-02-11T06:51:04.923Z,6.50
2023-02-11T06:53:41.575Z,6.50
2023-02-11T06:56:11.722Z,6.50
2023-02-11T06:58:38.550Z,6.50
2023-02-11T07:01:07.146Z,6.40
2023-02-11T07:03:36.341Z,6.40
2023-02-11T07:06:05.467Z,6.40
2023-02-11T07:08:36.188Z,6.50
2023-02-11T07:11:16.330Z,6.50
2023-02-11T07:16:13.311Z,6.50
2023-02-11T07:18:40.385Z,6.40
2023-02-11T07:21:08.803Z,6.40
2023-02-11T07:23:35.811Z,6.30
2023-02-11T07:26:11.434Z,6.30
2023-02-11T07:28:38.858Z,6.30
2023-02-11T07:31:13.279Z,6.40
2023-02-11T07:36:09.633Z,6.40
2023-02-11T07:38:37.390Z,6.40
2023-02-11T07:41:06.788Z,6.40
2023-02-11T07:43:34.192Z,6.50
2023-02-11T07:46:07.688Z,6.50
2023-02-11T07:48:34.906Z,6.50
2023-02-11T07:51:12.976Z,6.50
2023-02-11T07:56:07.931Z,6.50
2023-02-11T07:58:34.674Z,6.50
2023-02-11T08:01:07.024Z,6.50
2023-02-11T08:03:35.056Z,6.50
2023-02-11T08:06:09.962Z,6.50
2023-02-11T08:08:36.946Z,6.60
2023-02-11T08:11:15.306Z,6.40
2023-02-11T08:13:42.361Z,6.50
2023-02-11T08:16:09.639Z,6.50
2023-02-11T08:21:08.257Z,6.40
2023-02-11T08:23:39.048Z,6.40
2023-02-11T08:26:09.638Z,6.40
2023-02-11T08:28:37.838Z,6.50
2023-02-11T08:31:19.742Z,6.50
2023-02-11T08:33:46.799Z,6.40
2023-02-11T08:36:16.842Z,6.50
2023-02-11T08:38:44.489Z,6.60
2023-02-11T08:41:11.884Z,6.50
2023-02-11T08:46:11.741Z,6.50
2023-02-11T08:48:38.372Z,6.50
2023-02-11T08:51:09.684Z,6.50
2023-02-11T08:53:37.059Z,6.60
2023-02-11T08:56:03.991Z,6.60
2023-02-11T08:58:30.740Z,6.60
2023-02-11T09:03:24.798Z,6.60
2023-02-11T09:05:53.227Z,6.50
2023-02-11T09:08:20.911Z,6.50
2023-02-11T09:10:47.722Z,6.50
2023-02-11T09:13:14.527Z,6.50
2023-02-11T09:18:08.179Z,6.50
2023-02-11T09:20:34.782Z,6.60
2023-02-11T09:23:01.697Z,6.50
2023-02-11T09:25:28.549Z,6.60
2023-02-11T09:30:22.688Z,6.60
2023-02-11T09:32:49.605Z,6.70
2023-02-11T09:37:43.501Z,6.70
2023-02-11T09:42:43.393Z,6.70
2023-02-11T09:45:18.854Z,6.70
2023-02-11T09:47:49.655Z,6.70
2023-02-11T09:50:22.888Z,6.70
2023-02-11T09:53:10.882Z,6.70
2023-02-11T09:55:42.784Z,6.80
2023-02-11T09:58:21.290Z,6.80
2023-02-11T10:00:59.891Z,6.90
2023-02-11T10:03:56.648Z,6.90
2023-02-11T10:06:29.197Z,6.80
2023-02-11T10:09:23.537Z,7.00
2023-02-11T10:12:15.294Z,6.90
2023-02-11T10:15:06.902Z,7.00
2023-02-11T10:17:52.561Z,6.90
2023-02-11T10:20:30.658Z,6.90
2023-02-11T10:23:08.342Z,6.90
2023-02-11T10:25:38.626Z,6.90
2023-02-11T10:28:20.602Z,6.90
2023-02-11T10:31:21.923Z,6.90
2023-02-11T10:33:58.960Z,6.90
2023-02-11T10:36:36.429Z,6.90
2023-02-11T10:39:13.471Z,7.00
2023-02-11T10:41:44.279Z,7.10
2023-02-11T10:44:22.073Z,7.10
2023-02-11T10:46:49.652Z,7.10
2023-02-11T10:49:36.823Z,7.20
2023-02-11T10:52:32.801Z,7.20
2023-02-11T10:55:02.813Z,7.20
2023-02-11T10:57:38.287Z,7.20
2023-02-11T11:00:22.803Z,7.20
2023-02-11T11:02:56.598Z,7.20
2023-02-11T11:05:48.184Z,7.20
2023-02-11T11:08:16.288Z,7.20
2023-02-11T11:10:44.607Z,7.30
2023-02-11T11:13:23.159Z,7.20
2023-02-11T11:16:12.394Z,7.20
2023-02-11T11:18:47.993Z,7.20
2023-02-11T11:21:44.460Z,7.20
2023-02-11T11:24:19.768Z,7.30
2023-02-11T11:26:48.787Z,7.30
2023-02-11T11:29:35.703Z,7.30
2023-02-11T11:32:06.358Z,7.30
2023-02-11T11:34:37.093Z,7.30
2023-02-11T11:37:24.533Z,7.40
2023-02-11T11:39:56.906Z,7.40
2023-02-11T11:42:32.999Z,7.40
2023-02-11T11:45:02.387Z,7.40
2023-02-11T11:48:06.754Z,7.40
2023-02-11T11:50:55.867Z,7.30
2023-02-11T11:53:43.967Z,7.30
2023-02-11T11:56:29.144Z,7.40
2023-02-11T11:58:56.747Z,7.30
2023-02-11T12:01:41.965Z,7.40
2023-02-11T12:04:30.478Z,7.50
2023-02-11T12:07:25.807Z,7.50
2023-02-11T12:10:07.641Z,7.40
2023-02-11T12:12:40.311Z,7.50
2023-02-11T12:15:29.036Z,7.50
2023-02-11T12:18:09.857Z,7.50
2023-02-11T12:21:15.733Z,7.50
2023-02-11T12:23:55.832Z,7.60
2023-02-11T12:26:28.649Z,7.60
2023-02-11T12:29:28.714Z,7.60
2023-02-11T12:32:10.186Z,7.60
2023-02-11T12:37:49.725Z,7.60
2023-02-11T12:43:20.786Z,7.60
2023-02-11T12:46:42.832Z,7.60
2023-02-11T12:49:46.590Z,7.60
2023-02-11T12:52:31.288Z,7.60
2023-02-11T12:55:07.797Z,7.70
2023-02-11T12:57:37.839Z,7.70
2023-02-11T13:00:07.138Z,7.70
2023-02-11T13:02:41.331Z,7.70
2023-02-11T13:05:26.637Z,7.70
2023-02-11T13:07:58.582Z,7.60
2023-02-11T13:10:37.639Z,7.80
2023-02-11T13:13:22.790Z,7.90
2023-02-11T13:18:40.052Z,7.90
2023-02-11T13:21:40.051Z,7.90
2023-02-11T13:26:45.914Z,8.00
2023-02-11T13:29:38.809Z,7.90
2023-02-11T13:32:13.517Z,8.00
2023-02-11T13:37:21.776Z,8.10
2023-02-11T13:40:02.721Z,7.90
2023-02-11T13:42:31.205Z,7.90
2023-02-11T13:44:58.295Z,8.00
2023-02-11T13:47:33.655Z,8.00
2023-02-11T13:50:02.353Z,8.00
2023-02-11T13:52:38.742Z,8.10
2023-02-11T13:55:21.463Z,8.00
2023-02-11T13:58:08.023Z,8.10
2023-02-11T14:00:34.694Z,8.20
2023-02-11T14:03:28.941Z,8.10
2023-02-11T14:06:31.643Z,8.10
2023-02-11T14:09:09.802Z,8.10
2023-02-11T14:11:49.912Z,8.20
2023-02-11T14:14:27.627Z,8.10
2023-02-11T14:17:02.871Z,8.30
2023-02-11T14:19:37.843Z,8.30
2023-02-11T14:22:26.617Z,8.30
2023-02-11T14:25:02.574Z,8.20
2023-02-11T14:27:44.149Z,8.30
2023-02-11T14:30:34.952Z,8.30
2023-02-11T14:33:38.265Z,8.20
2023-02-11T14:36:31.213Z,8.30
2023-02-11T14:39:22.459Z,8.30
2023-02-11T14:41:51.080Z,8.30
2023-02-11T14:44:25.613Z,7.20
2023-02-11T14:46:53.702Z,8.30
2023-02-11T14:49:32.584Z,8.30
2023-02-11T14:52:25.347Z,8.40
2023-02-11T14:54:56.940Z,8.40
2023-02-11T14:57:23.526Z,8.40
2023-02-11T15:00:05.960Z,8.40
2023-02-11T15:02:35.905Z,8.40
2023-02-11T15:05:28.962Z,8.40
2023-02-11T15:07:59.459Z,8.40
2023-02-11T15:10:35.282Z,8.40
2023-02-11T15:13:03.622Z,8.40
2023-02-11T15:15:31.483Z,8.40
2023-02-11T15:18:01.468Z,8.40
2023-02-11T15:20:31.759Z,8.40
2023-02-11T15:23:10.910Z,8.50
2023-02-11T15:25:43.902Z,8.50
2023-02-11T15:28:23.717Z,8.50
2023-02-11T15:31:14.098Z,8.50
2023-02-11T15:36:11.369Z,8.50
2023-02-11T15:38:38.072Z,8.50
2023-02-11T15:41:07.436Z,8.50
2023-02-11T15:44:00.401Z,8.50
2023-02-11T15:46:37.596Z,8.40
2023-02-11T15:49:04.781Z,8.50
2023-02-11T15:51:35.375Z,8.60
2023-02-11T15:54:07.645Z,8.40
2023-02-11T15:56:44.083Z,8.50
2023-02-11T15:59:25.702Z,8.50
2023-02-11T16:01:54.184Z,8.50
2023-02-11T16:04:27.083Z,8.60
2023-02-11T16:06:55.333Z,8.50
2023-02-11T16:09:31.304Z,8.50
2023-02-11T16:12:00.711Z,8.50
2023-02-11T16:14:27.268Z,8.40
2023-02-11T16:16:57.586Z,8.40
2023-02-11T16:19:26.876Z,8.40
2023-02-11T16:21:56.461Z,8.40
2023-02-11T16:24:28.643Z,8.30
2023-02-11T16:26:58.940Z,8.30
2023-02-11T16:29:35.215Z,11.20
2023-02-11T16:32:10.299Z,8.30
2023-02-11T16:34:37.457Z,8.40
2023-02-11T16:37:05.522Z,8.40
2023-02-11T16:39:32.495Z,8.40
2023-02-11T16:41:59.352Z,8.40
2023-02-11T16:44:26.128Z,8.30
2023-02-11T16:46:53.242Z,8.80
2023-02-11T16:49:26.510Z,8.30
2023-02-11T16:52:00.945Z,8.30
2023-02-11T16:54:29.319Z,8.40
2023-02-11T16:56:56.844Z,8.40
2023-02-11T17:01:53.588Z,8.30
2023-02-11T17:04:25.303Z,8.40
2023-02-11T17:06:52.189Z,8.30
2023-02-11T17:09:24.589Z,8.40
2023-02-11T17:11:51.834Z,8.40
2023-02-11T17:14:20.019Z,8.40
2023-02-11T17:16:47.851Z,8.50
2023-02-11T17:19:16.843Z,8.50
2023-02-11T17:21:44.767Z,8.50
2023-02-11T17:24:12.214Z,8.40
2023-02-11T17:26:39.007Z,8.40
2023-02-11T17:29:10.223Z,8.40
2023-02-11T17:31:37.213Z,8.40
2023-02-11T17:34:03.896Z,8.30
2023-02-11T17:36:31.286Z,8.30
2023-02-11T17:38:58.728Z,8.20
2023-02-11T17:41:25.711Z,8.10
2023-02-11T17:43:52.444Z,8.10
2023-02-11T17:46:19.330Z,8.20
2023-02-11T17:48:45.932Z,8.20
2023-02-11T17:51:30.500Z,8.30
2023-02-11T17:53:59.267Z,8.30
2023-02-11T17:56:25.860Z,8.40
2023-02-11T17:58:53.114Z,8.40
2023-02-11T18:01:20.375Z,8.40
2023-02-11T18:03:47.033Z,8.30
2023-02-11T18:06:13.671Z,8.30
2023-02-11T18:08:41.803Z,8.30
2023-02-11T18:11:13.430Z,8.30
2023-02-11T18:13:40.037Z,8.30
2023-02-11T18:16:15.383Z,8.30
2023-02-11T18:18:43.160Z,8.30
2023-02-11T18:21:13.811Z,8.30
2023-02-11T18:23:40.425Z,8.30
2023-02-11T18:26:08.246Z,8.40
2023-02-11T18:28:35.159Z,8.40
2023-02-11T18:31:02.243Z,8.40
2023-02-11T18:33:29.808Z,8.40
2023-02-11T18:35:56.823Z,8.30
2023-02-11T18:38:24.493Z,8.30
2023-02-11T18:40:52.272Z,8.30
2023-02-11T18:43:20.403Z,8.20
2023-02-11T18:45:48.945Z,8.30
2023-02-11T18:48:16.814Z,8.30
2023-02-11T18:50:45.418Z,8.30
2023-02-11T18:53:14.009Z,8.40
2023-02-11T18:55:42.395Z,8.30
2023-02-11T18:58:09.622Z,8.30
2023-02-11T19:00:38.608Z,8.30
2023-02-11T19:03:05.321Z,8.40
2023-02-11T19:05:33.384Z,8.30
2023-02-11T19:08:00.888Z,8.40
2023-02-11T19:10:28.119Z,8.30
2023-02-11T19:12:58.981Z,8.40
2023-02-11T19:15:26.341Z,8.20
2023-02-11T19:17:53.024Z,8.40
2023-02-11T19:20:19.698Z,8.30
2023-02-11T19:22:46.368Z,8.30
2023-02-11T19:25:13.622Z,8.40
2023-02-11T19:27:43.226Z,8.40
2023-02-11T19:30:10.829Z,8.40
2023-02-11T19:32:37.445Z,8.40
2023-02-11T19:35:04.249Z,8.30
2023-02-11T19:37:30.868Z,8.40
2023-02-11T19:39:57.519Z,8.40
2023-02-11T19:42:27.562Z,8.40
2023-02-11T19:44:54.369Z,8.40
2023-02-11T19:47:27.463Z,8.30
2023-02-11T19:49:54.700Z,8.30
2023-02-11T19:52:21.333Z,8.30
2023-02-11T19:54:48.040Z,8.30
2023-02-11T19:57:14.624Z,8.40
2023-02-11T19:59:41.329Z,8.40
2023-02-11T20:02:10.186Z,8.50
2023-02-11T20:04:36.848Z,8.50
2023-02-11T20:07:03.499Z,8.50
2023-02-11T20:09:31.679Z,7.00
2023-02-11T20:11:58.918Z,8.50
2023-02-11T20:14:27.816Z,8.50
2023-02-11T20:16:54.711Z,8.50
2023-02-11T20:19:22.101Z,8.50
2023-02-11T20:21:51.886Z,8.50
2023-02-11T20:24:19.405Z,8.50
2023-02-11T20:26:48.154Z,8.40
2023-02-11T20:29:16.277Z,8.40
2023-02-11T20:31:43.305Z,8.40
2023-02-11T20:34:11.379Z,8.40
2023-02-11T20:36:39.135Z,8.40
2023-02-11T20:39:06.942Z,8.40
2023-02-11T20:41:39.061Z,8.40
2023-02-11T20:44:08.483Z,8.50
2023-02-11T20:46:37.018Z,8.50
2023-02-11T20:49:03.763Z,8.40
2023-02-11T20:51:33.269Z,8.40
2023-02-11T20:54:00.894Z,8.50
2023-02-11T20:56:30.363Z,8.50
2023-02-11T20:58:58.440Z,8.50
2023-02-11T21:01:27.701Z,8.50
2023-02-11T21:03:58.453Z,8.50
2023-02-11T21:06:27.146Z,8.60
2023-02-11T21:08:54.200Z,8.60
2023-02-11T21:11:21.136Z,8.60
2023-02-11T21:16:17.966Z,8.60
2023-02-11T21:18:44.575Z,8.70
2023-02-11T21:23:39.712Z,8.50
2023-02-11T21:26:07.854Z,8.50
2023-02-11T21:28:35.199Z,8.50
2023-02-11T21:31:02.922Z,8.30
2023-02-11T21:33:33.425Z,8.50
2023-02-11T21:36:02.004Z,8.50
2023-02-11T21:38:29.476Z,8.50
2023-02-11T21:41:01.845Z,8.50
2023-02-11T21:43:28.586Z,8.50
2023-02-11T21:45:55.561Z,8.50
2023-02-11T21:48:23.736Z,8.50
2023-02-11T21:50:50.321Z,8.50
2023-02-11T21:53:17.077Z,8.50
2023-02-11T21:55:43.754Z,8.50
2023-02-11T21:58:12.605Z,8.50
2023-02-11T22:00:39.649Z,8.40
2023-02-11T22:03:06.443Z,8.40
2023-02-11T22:05:33.112Z,8.40
2023-02-11T22:07:59.924Z,8.40
2023-02-11T22:10:26.589Z,8.40
2023-02-11T22:12:53.189Z,8.40
2023-02-11T22:15:19.786Z,8.40
2023-02-11T22:17:46.408Z,8.40
2023-02-11T22:20:16.466Z,8.40
2023-02-11T22:22:43.165Z,8.40
2023-02-11T22:25:10.014Z,8.30
2023-02-11T22:27:36.606Z,8.30
2023-02-11T22:30:04.628Z,8.30
2023-02-11T22:32:31.238Z,8.30
2023-02-11T22:34:57.888Z,8.40
2023-02-11T22:37:24.460Z,8.30
2023-02-11T22:39:51.053Z,8.30
2023-02-11T22:42:17.658Z,8.30
2023-02-11T22:44:44.473Z,8.30
2023-02-11T22:47:11.058Z,8.10
2023-02-11T22:49:39.447Z,8.20
2023-02-11T22:52:06.031Z,8.20
2023-02-11T22:54:32.645Z,8.10
2023-02-11T22:56:59.265Z,8.10
2023-02-11T22:59:25.849Z,8.10
2023-02-11T23:01:52.483Z,8.10
2023-02-11T23:04:20.789Z,8.10
2023-02-11T23:06:47.711Z,8.10
2023-02-11T23:09:14.368Z,8.10
2023-02-11T23:11:41.444Z,8.10
2023-02-11T23:14:10.027Z,8.30
2023-02-11T23:16:36.676Z,8.10
2023-02-11T23:19:06.815Z,8.20
2023-02-11T23:21:35.400Z,8.20
2023-02-11T23:24:05.429Z,8.30
2023-02-11T23:26:32.089Z,8.30
2023-02-11T23:28:59.789Z,8.30
2023-02-11T23:31:33.941Z,8.20
2023-02-11T23:36:28.496Z,8.20
2023-02-11T23:38:55.254Z,8.20
2023-02-11T23:41:22.351Z,8.20
2023-02-11T23:43:54.347Z,8.20
2023-02-11T23:46:24.754Z,8.20
2023-02-11T23:48:52.420Z,8.20
2023-02-11T23:51:19.614Z,8.10
2023-02-11T23:53:46.608Z,8.20
2023-02-11T23:56:15.983Z,8.40
2023-02-11T23:58:44.606Z,8.20
